sensor_id;sensor_type;location;lat;lon;timestamp;P1;durP1;ratioP1;P2;durP2;ratioP2
22460;SDS011;11397;48.410;11.468;2023-08-17T00:00:06;2.72;;;2.63;;
22460;SDS011;11397;48.410;11.468;2023-08-17T00:05:09;2.35;;;2.35;;
22460;SDS011;11397;48.410;11.468;2023-08-17T00:10:13;2.33;;;2.33;;
22460;SDS011;11397;48.410;11.468;2023-08-17T00:15:14;2.58;;;2.58;;
22460;SDS011;11397;48.410;11.468;2023-08-17T00:20:16;2.45;;;2.45;;
22460;SDS011;11397;48.410;11.468;2023-08-17T00:25:20;2.50;;;2.50;;
22460;SDS011;11397;48.410;11.468;2023-08-17T00:30:22;2.55;;;2.45;;
22460;SDS011;11397;48.410;11.468;2023-08-17T00:35:24;2.60;;;2.60;;
22460;SDS011;11397;48.410;11.468;2023-08-17T00:40:27;2.45;;;2.45;;
22460;SDS011;11397;48.410;11.468;2023-08-17T00:45:29;2.50;;;2.50;;
22460;SDS011;11397;48.410;11.468;2023-08-17T00:50:31;2.20;;;2.20;;
22460;SDS011;11397;48.410;11.468;2023-08-17T00:55:34;2.38;;;2.38;;
22460;SDS011;11397;48.410;11.468;2023-08-17T01:00:36;2.45;;;2.45;;
22460;SDS011;11397;48.410;11.468;2023-08-17T01:05:37;2.63;;;2.53;;
22460;SDS011;11397;48.410;11.468;2023-08-17T01:10:57;2.45;;;2.45;;
22460;SDS011;11397;48.410;11.468;2023-08-17T01:15:59;2.50;;;2.50;;
22460;SDS011;11397;48.410;11.468;2023-08-17T01:21:05;2.60;;;2.55;;
22460;SDS011;11397;48.410;11.468;2023-08-17T01:26:09;2.45;;;2.45;;
22460;SDS011;11397;48.410;11.468;2023-08-17T01:31:11;2.80;;;2.70;;
22460;SDS011;11397;48.410;11.468;2023-08-17T01:36:17;2.90;;;2.80;;
22460;SDS011;11397;48.410;11.468;2023-08-17T01:41:22;2.70;;;2.70;;
22460;SDS011;11397;48.410;11.468;2023-08-17T01:46:27;2.38;;;2.38;;
22460;SDS011;11397;48.410;11.468;2023-08-17T01:51:29;3.00;;;2.90;;
22460;SDS011;11397;48.410;11.468;2023-08-17T01:56:32;2.33;;;2.33;;
22460;SDS011;11397;48.410;11.468;2023-08-17T02:01:34;2.70;;;2.60;;
22460;SDS011;11397;48.410;11.468;2023-08-17T02:06:38;2.60;;;2.60;;
22460;SDS011;11397;48.410;11.468;2023-08-17T02:11:41;2.60;;;2.60;;
22460;SDS011;11397;48.410;11.468;2023-08-17T02:16:42;2.70;;;2.70;;
22460;SDS011;11397;48.410;11.468;2023-08-17T02:21:46;2.60;;;2.60;;
22460;SDS011;11397;48.410;11.468;2023-08-17T02:26:49;2.80;;;2.70;;
22460;SDS011;11397;48.410;11.468;2023-08-17T02:31:50;2.50;;;2.50;;
22460;SDS011;11397;48.410;11.468;2023-08-17T02:36:52;2.80;;;2.75;;
22460;SDS011;11397;48.410;11.468;2023-08-17T02:41:55;2.38;;;2.38;;
22460;SDS011;11397;48.410;11.468;2023-08-17T02:46:57;2.53;;;2.53;;
22460;SDS011;11397;48.410;11.468;2023-08-17T02:51:59;2.55;;;2.55;;
22460;SDS011;11397;48.410;11.468;2023-08-17T02:57:02;2.75;;;2.72;;
22460;SDS011;11397;48.410;11.468;2023-08-17T03:02:04;2.65;;;2.60;;
22460;SDS011;11397;48.410;11.468;2023-08-17T03:07:06;2.70;;;2.70;;
22460;SDS011;11397;48.410;11.468;2023-08-17T03:12:10;2.63;;;2.63;;
22460;SDS011;11397;48.410;11.468;2023-08-17T03:17:11;2.90;;;2.80;;
22460;SDS011;11397;48.410;11.468;2023-08-17T03:22:13;2.85;;;2.78;;
22460;SDS011;11397;48.410;11.468;2023-08-17T03:27:16;2.75;;;2.72;;
22460;SDS011;11397;48.410;11.468;2023-08-17T03:32:18;2.63;;;2.63;;
22460;SDS011;11397;48.410;11.468;2023-08-17T03:37:20;2.83;;;2.75;;
22460;SDS011;11397;48.410;11.468;2023-08-17T03:42:24;2.88;;;2.78;;
22460;SDS011;11397;48.410;11.468;2023-08-17T03:47:25;2.80;;;2.70;;
22460;SDS011;11397;48.410;11.468;2023-08-17T03:52:27;2.85;;;2.75;;
22460;SDS011;11397;48.410;11.468;2023-08-17T03:57:31;3.20;;;3.10;;
22460;SDS011;11397;48.410;11.468;2023-08-17T04:02:32;2.60;;;2.60;;
22460;SDS011;11397;48.410;11.468;2023-08-17T04:07:34;3.10;;;3.00;;
22460;SDS011;11397;48.410;11.468;2023-08-17T04:12:41;2.67;;;2.67;;
22460;SDS011;11397;48.410;11.468;2023-08-17T04:17:43;2.53;;;2.53;;
22460;SDS011;11397;48.410;11.468;2023-08-17T04:22:45;3.05;;;2.95;;
22460;SDS011;11397;48.410;11.468;2023-08-17T04:27:48;2.80;;;2.70;;
22460;SDS011;11397;48.410;11.468;2023-08-17T04:32:50;3.10;;;3.00;;
22460;SDS011;11397;48.410;11.468;2023-08-17T04:37:54;2.88;;;2.78;;
22460;SDS011;11397;48.410;11.468;2023-08-17T04:42:57;2.75;;;2.72;;
22460;SDS011;11397;48.410;11.468;2023-08-17T04:48:00;2.75;;;2.70;;
22460;SDS011;11397;48.410;11.468;2023-08-17T04:53:03;3.05;;;2.95;;
22460;SDS011;11397;48.410;11.468;2023-08-17T04:58:07;2.60;;;2.60;;
22460;SDS011;11397;48.410;11.468;2023-08-17T05:03:09;2.80;;;2.70;;
22460;SDS011;11397;48.410;11.468;2023-08-17T05:08:16;3.00;;;2.90;;
22460;SDS011;11397;48.410;11.468;2023-08-17T05:13:19;2.90;;;2.80;;
22460;SDS011;11397;48.410;11.468;2023-08-17T05:18:21;3.05;;;2.95;;
22460;SDS011;11397;48.410;11.468;2023-08-17T05:23:23;3.00;;;2.90;;
22460;SDS011;11397;48.410;11.468;2023-08-17T05:28:28;2.90;;;2.80;;
22460;SDS011;11397;48.410;11.468;2023-08-17T05:33:30;2.83;;;2.78;;
22460;SDS011;11397;48.410;11.468;2023-08-17T05:38:32;2.65;;;2.65;;
22460;SDS011;11397;48.410;11.468;2023-08-17T05:43:36;2.75;;;2.72;;
22460;SDS011;11397;48.410;11.468;2023-08-17T05:48:37;2.65;;;2.65;;
22460;SDS011;11397;48.410;11.468;2023-08-17T05:53:40;2.90;;;2.80;;
22460;SDS011;11397;48.410;11.468;2023-08-17T05:58:43;2.90;;;2.80;;
22460;SDS011;11397;48.410;11.468;2023-08-17T06:03:45;2.67;;;2.67;;
22460;SDS011;11397;48.410;11.468;2023-08-17T06:08:47;2.90;;;2.80;;
22460;SDS011;11397;48.410;11.468;2023-08-17T06:13:50;2.95;;;2.85;;
22460;SDS011;11397;48.410;11.468;2023-08-17T06:18:52;2.70;;;2.70;;
22460;SDS011;11397;48.410;11.468;2023-08-17T06:23:54;2.25;;;2.25;;
22460;SDS011;11397;48.410;11.468;2023-08-17T06:28:57;2.80;;;2.70;;
22460;SDS011;11397;48.410;11.468;2023-08-17T06:33:59;2.65;;;2.65;;
22460;SDS011;11397;48.410;11.468;2023-08-17T06:39:01;2.92;;;2.83;;
22460;SDS011;11397;48.410;11.468;2023-08-17T06:44:08;3.20;;;3.10;;
22460;SDS011;11397;48.410;11.468;2023-08-17T06:49:10;2.60;;;2.60;;
22460;SDS011;11397;48.410;11.468;2023-08-17T06:54:12;3.05;;;2.95;;
22460;SDS011;11397;48.410;11.468;2023-08-17T06:59:16;2.90;;;2.80;;
22460;SDS011;11397;48.410;11.468;2023-08-17T07:04:18;2.90;;;2.80;;
22460;SDS011;11397;48.410;11.468;2023-08-17T07:09:20;3.08;;;2.97;;
22460;SDS011;11397;48.410;11.468;2023-08-17T07:14:23;2.90;;;2.80;;
22460;SDS011;11397;48.410;11.468;2023-08-17T07:19:25;2.47;;;2.47;;
22460;SDS011;11397;48.410;11.468;2023-08-17T07:24:28;2.75;;;2.72;;
22460;SDS011;11397;48.410;11.468;2023-08-17T07:29:31;2.80;;;2.75;;
22460;SDS011;11397;48.410;11.468;2023-08-17T07:34:33;2.53;;;2.53;;
22460;SDS011;11397;48.410;11.468;2023-08-17T07:39:35;2.65;;;2.65;;
22460;SDS011;11397;48.410;11.468;2023-08-17T07:44:38;2.70;;;2.70;;
22460;SDS011;11397;48.410;11.468;2023-08-17T07:49:40;2.80;;;2.70;;
22460;SDS011;11397;48.410;11.468;2023-08-17T07:54:42;2.90;;;2.80;;
22460;SDS011;11397;48.410;11.468;2023-08-17T07:59:45;2.75;;;2.75;;
22460;SDS011;11397;48.410;11.468;2023-08-17T08:04:47;2.60;;;2.60;;
22460;SDS011;11397;48.410;11.468;2023-08-17T08:09:49;2.95;;;2.85;;
22460;SDS011;11397;48.410;11.468;2023-08-17T08:14:52;2.63;;;2.63;;
22460;SDS011;11397;48.410;11.468;2023-08-17T08:19:54;2.90;;;2.80;;
22460;SDS011;11397;48.410;11.468;2023-08-17T08:24:57;2.42;;;2.42;;
22460;SDS011;11397;48.410;11.468;2023-08-17T08:30:00;2.70;;;2.60;;
22460;SDS011;11397;48.410;11.468;2023-08-17T08:35:02;2.60;;;2.60;;
22460;SDS011;11397;48.410;11.468;2023-08-17T08:40:05;2.50;;;2.50;;
22460;SDS011;11397;48.410;11.468;2023-08-17T08:45:13;2.63;;;2.53;;
22460;SDS011;11397;48.410;11.468;2023-08-17T08:50:16;2.40;;;2.40;;
22460;SDS011;11397;48.410;11.468;2023-08-17T08:55:21;2.63;;;2.63;;
22460;SDS011;11397;48.410;11.468;2023-08-17T09:00:26;2.70;;;2.70;;
22460;SDS011;11397;48.410;11.468;2023-08-17T09:05:27;2.80;;;2.70;;
22460;SDS011;11397;48.410;11.468;2023-08-17T09:10:30;2.65;;;2.65;;
22460;SDS011;11397;48.410;11.468;2023-08-17T09:15:33;2.60;;;2.60;;
22460;SDS011;11397;48.410;11.468;2023-08-17T09:20:38;2.55;;;2.55;;
22460;SDS011;11397;48.410;11.468;2023-08-17T09:25:41;2.90;;;2.80;;
22460;SDS011;11397;48.410;11.468;2023-08-17T09:30:52;2.72;;;2.72;;
22460;SDS011;11397;48.410;11.468;2023-08-17T09:35:55;2.53;;;2.53;;
22460;SDS011;11397;48.410;11.468;2023-08-17T09:40:58;2.92;;;2.83;;
22460;SDS011;11397;48.410;11.468;2023-08-17T09:46:01;2.70;;;2.70;;
22460;SDS011;11397;48.410;11.468;2023-08-17T09:51:03;2.88;;;2.78;;
22460;SDS011;11397;48.410;11.468;2023-08-17T09:56:07;2.90;;;2.80;;
22460;SDS011;11397;48.410;11.468;2023-08-17T10:01:12;3.00;;;2.90;;
22460;SDS011;11397;48.410;11.468;2023-08-17T10:06:15;2.65;;;2.65;;
22460;SDS011;11397;48.410;11.468;2023-08-17T10:11:19;2.80;;;2.78;;
22460;SDS011;11397;48.410;11.468;2023-08-17T10:16:26;3.00;;;2.90;;
22460;SDS011;11397;48.410;11.468;2023-08-17T10:21:28;3.00;;;2.90;;
22460;SDS011;11397;48.410;11.468;2023-08-17T10:26:31;2.90;;;2.80;;
22460;SDS011;11397;48.410;11.468;2023-08-17T10:31:35;2.78;;;2.70;;
22460;SDS011;11397;48.410;11.468;2023-08-17T10:36:37;3.13;;;3.03;;
22460;SDS011;11397;48.410;11.468;2023-08-17T10:41:45;3.10;;;3.00;;
22460;SDS011;11397;48.410;11.468;2023-08-17T10:46:49;2.90;;;2.80;;
22460;SDS011;11397;48.410;11.468;2023-08-17T10:51:59;3.20;;;3.10;;
22460;SDS011;11397;48.410;11.468;2023-08-17T10:57:11;2.72;;;2.70;;
22460;SDS011;11397;48.410;11.468;2023-08-17T11:02:28;2.70;;;2.70;;
22460;SDS011;11397;48.410;11.468;2023-08-17T11:07:38;3.10;;;3.00;;
22460;SDS011;11397;48.410;11.468;2023-08-17T11:12:41;2.70;;;2.70;;
22460;SDS011;11397;48.410;11.468;2023-08-17T11:17:45;2.70;;;2.70;;
22460;SDS011;11397;48.410;11.468;2023-08-17T11:22:47;3.00;;;2.90;;
22460;SDS011;11397;48.410;11.468;2023-08-17T11:27:52;2.78;;;2.72;;
22460;SDS011;11397;48.410;11.468;2023-08-17T11:32:56;2.63;;;2.53;;
22460;SDS011;11397;48.410;11.468;2023-08-17T11:37:57;2.70;;;2.70;;
22460;SDS011;11397;48.410;11.468;2023-08-17T11:42:59;2.58;;;2.58;;
22460;SDS011;11397;48.410;11.468;2023-08-17T11:48:03;2.70;;;2.70;;
22460;SDS011;11397;48.410;11.468;2023-08-17T11:53:05;2.80;;;2.70;;
22460;SDS011;11397;48.410;11.468;2023-08-17T11:58:07;2.80;;;2.70;;
22460;SDS011;11397;48.410;11.468;2023-08-17T12:03:16;2.60;;;2.60;;
22460;SDS011;11397;48.410;11.468;2023-08-17T12:08:18;2.65;;;2.65;;
22460;SDS011;11397;48.410;11.468;2023-08-17T12:13:29;2.90;;;2.80;;
22460;SDS011;11397;48.410;11.468;2023-08-17T12:18:33;2.97;;;2.88;;
22460;SDS011;11397;48.410;11.468;2023-08-17T12:23:35;2.63;;;2.63;;
22460;SDS011;11397;48.410;11.468;2023-08-17T12:28:39;2.90;;;2.80;;
22460;SDS011;11397;48.410;11.468;2023-08-17T12:33:42;2.50;;;2.50;;
22460;SDS011;11397;48.410;11.468;2023-08-17T12:38:44;2.78;;;2.70;;
22460;SDS011;11397;48.410;11.468;2023-08-17T12:43:49;2.92;;;2.83;;
22460;SDS011;11397;48.410;11.468;2023-08-17T12:48:52;2.90;;;2.80;;
22460;SDS011;11397;48.410;11.468;2023-08-17T12:53:54;2.75;;;2.65;;
22460;SDS011;11397;48.410;11.468;2023-08-17T12:58:55;2.60;;;2.60;;
22460;SDS011;11397;48.410;11.468;2023-08-17T13:03:58;2.95;;;2.85;;
22460;SDS011;11397;48.410;11.468;2023-08-17T13:09:00;2.53;;;2.53;;
22460;SDS011;11397;48.410;11.468;2023-08-17T13:14:06;2.80;;;2.70;;
22460;SDS011;11397;48.410;11.468;2023-08-17T13:19:30;2.83;;;2.78;;
22460;SDS011;11397;48.410;11.468;2023-08-17T13:24:31;2.72;;;2.72;;
22460;SDS011;11397;48.410;11.468;2023-08-17T13:29:33;3.10;;;3.00;;
22460;SDS011;11397;48.410;11.468;2023-08-17T13:34:37;2.72;;;2.72;;
22460;SDS011;11397;48.410;11.468;2023-08-17T13:39:39;2.70;;;2.70;;
22460;SDS011;11397;48.410;11.468;2023-08-17T13:44:41;2.40;;;2.40;;
22460;SDS011;11397;48.410;11.468;2023-08-17T13:49:44;2.50;;;2.50;;
22460;SDS011;11397;48.410;11.468;2023-08-17T13:54:46;2.42;;;2.42;;
22460;SDS011;11397;48.410;11.468;2023-08-17T13:59:48;2.58;;;2.58;;
22460;SDS011;11397;48.410;11.468;2023-08-17T14:04:51;2.50;;;2.50;;
22460;SDS011;11397;48.410;11.468;2023-08-17T14:09:53;2.40;;;2.40;;
22460;SDS011;11397;48.410;11.468;2023-08-17T14:14:55;2.40;;;2.40;;
22460;SDS011;11397;48.410;11.468;2023-08-17T14:19:58;2.47;;;2.47;;
22460;SDS011;11397;48.410;11.468;2023-08-17T14:25:00;2.30;;;2.30;;
22460;SDS011;11397;48.410;11.468;2023-08-17T14:30:04;2.38;;;2.38;;
22460;SDS011;11397;48.410;11.468;2023-08-17T14:35:09;2.22;;;2.22;;
22460;SDS011;11397;48.410;11.468;2023-08-17T14:40:11;2.50;;;2.50;;
22460;SDS011;11397;48.410;11.468;2023-08-17T14:45:13;2.55;;;2.55;;
22460;SDS011;11397;48.410;11.468;2023-08-17T14:50:17;2.60;;;2.60;;
22460;SDS011;11397;48.410;11.468;2023-08-17T14:55:18;2.85;;;2.75;;
22460;SDS011;11397;48.410;11.468;2023-08-17T15:00:20;2.47;;;2.47;;
22460;SDS011;11397;48.410;11.468;2023-08-17T15:05:24;2.70;;;2.60;;
22460;SDS011;11397;48.410;11.468;2023-08-17T15:10:26;2.58;;;2.58;;
22460;SDS011;11397;48.410;11.468;2023-08-17T15:15:27;2.38;;;2.38;;
22460;SDS011;11397;48.410;11.468;2023-08-17T15:20:33;2.30;;;2.30;;
22460;SDS011;11397;48.410;11.468;2023-08-17T15:25:35;2.80;;;2.70;;
22460;SDS011;11397;48.410;11.468;2023-08-17T15:30:37;3.15;;;2.80;;
22460;SDS011;11397;48.410;11.468;2023-08-17T15:35:41;2.55;;;2.55;;
22460;SDS011;11397;48.410;11.468;2023-08-17T15:40:43;2.78;;;2.70;;
22460;SDS011;11397;48.410;11.468;2023-08-17T15:45:45;2.30;;;2.30;;
22460;SDS011;11397;48.410;11.468;2023-08-17T15:50:49;2.22;;;2.22;;
22460;SDS011;11397;48.410;11.468;2023-08-17T15:55:51;2.22;;;2.22;;
22460;SDS011;11397;48.410;11.468;2023-08-17T16:00:52;2.55;;;2.55;;
22460;SDS011;11397;48.410;11.468;2023-08-17T16:05:56;2.50;;;2.50;;
22460;SDS011;11397;48.410;11.468;2023-08-17T16:10:58;2.58;;;2.58;;
22460;SDS011;11397;48.410;11.468;2023-08-17T16:16:00;2.63;;;2.60;;
22460;SDS011;11397;48.410;11.468;2023-08-17T16:21:05;2.50;;;2.50;;
22460;SDS011;11397;48.410;11.468;2023-08-17T16:26:07;2.70;;;2.60;;
22460;SDS011;11397;48.410;11.468;2023-08-17T16:31:10;2.55;;;2.55;;
22460;SDS011;11397;48.410;11.468;2023-08-17T16:36:14;2.50;;;2.50;;
22460;SDS011;11397;48.410;11.468;2023-08-17T16:41:16;2.33;;;2.33;;
22460;SDS011;11397;48.410;11.468;2023-08-17T16:46:18;2.47;;;2.47;;
22460;SDS011;11397;48.410;11.468;2023-08-17T16:51:21;2.40;;;2.40;;
22460;SDS011;11397;48.410;11.468;2023-08-17T16:56:23;2.20;;;2.20;;
22460;SDS011;11397;48.410;11.468;2023-08-17T17:01:28;2.22;;;2.22;;
22460;SDS011;11397;48.410;11.468;2023-08-17T17:06:31;2.20;;;2.20;;
22460;SDS011;11397;48.410;11.468;2023-08-17T17:11:32;2.03;;;2.03;;
22460;SDS011;11397;48.410;11.468;2023-08-17T17:16:34;2.25;;;2.25;;
22460;SDS011;11397;48.410;11.468;2023-08-17T17:21:37;2.40;;;2.40;;
22460;SDS011;11397;48.410;11.468;2023-08-17T17:26:39;2.20;;;2.20;;
22460;SDS011;11397;48.410;11.468;2023-08-17T17:31:41;2.30;;;2.30;;
22460;SDS011;11397;48.410;11.468;2023-08-17T17:36:44;2.30;;;2.30;;
22460;SDS011;11397;48.410;11.468;2023-08-17T17:41:48;2.28;;;2.28;;
22460;SDS011;11397;48.410;11.468;2023-08-17T17:46:49;2.20;;;2.20;;
22460;SDS011;11397;48.410;11.468;2023-08-17T17:51:53;2.20;;;2.20;;
22460;SDS011;11397;48.410;11.468;2023-08-17T17:56:55;2.20;;;2.20;;
22460;SDS011;11397;48.410;11.468;2023-08-17T18:01:57;2.30;;;2.30;;
22460;SDS011;11397;48.410;11.468;2023-08-17T18:07:00;2.20;;;2.20;;
22460;SDS011;11397;48.410;11.468;2023-08-17T18:12:02;2.40;;;2.30;;
22460;SDS011;11397;48.410;11.468;2023-08-17T18:17:04;2.30;;;2.30;;
22460;SDS011;11397;48.410;11.468;2023-08-17T18:22:07;2.03;;;2.03;;
22460;SDS011;11397;48.410;11.468;2023-08-17T18:40:18;2.30;;;2.30;;
22460;SDS011;11397;48.410;11.468;2023-08-17T18:45:21;2.30;;;2.30;;
22460;SDS011;11397;48.410;11.468;2023-08-17T18:50:23;2.30;;;2.30;;
22460;SDS011;11397;48.410;11.468;2023-08-17T18:55:30;2.20;;;2.20;;
22460;SDS011;11397;48.410;11.468;2023-08-17T19:00:34;2.30;;;2.30;;
22460;SDS011;11397;48.410;11.468;2023-08-17T19:05:35;2.20;;;2.20;;
22460;SDS011;11397;48.410;11.468;2023-08-17T19:10:41;2.30;;;2.30;;
22460;SDS011;11397;48.410;11.468;2023-08-17T19:15:44;2.22;;;2.22;;
22460;SDS011;11397;48.410;11.468;2023-08-17T19:20:47;2.38;;;2.30;;
22460;SDS011;11397;48.410;11.468;2023-08-17T19:25:52;2.40;;;2.40;;
22460;SDS011;11397;48.410;11.468;2023-08-17T19:30:55;2.60;;;2.50;;
22460;SDS011;11397;48.410;11.468;2023-08-17T19:35:59;2.30;;;2.30;;
22460;SDS011;11397;48.410;11.468;2023-08-17T19:41:03;2.60;;;2.60;;
22460;SDS011;11397;48.410;11.468;2023-08-17T19:46:06;2.40;;;2.40;;
22460;SDS011;11397;48.410;11.468;2023-08-17T19:51:20;2.35;;;2.35;;
22460;SDS011;11397;48.410;11.468;2023-08-17T19:56:24;2.53;;;2.53;;
22460;SDS011;11397;48.410;11.468;2023-08-17T20:01:27;2.55;;;2.55;;
22460;SDS011;11397;48.410;11.468;2023-08-17T20:06:30;2.55;;;2.55;;
22460;SDS011;11397;48.410;11.468;2023-08-17T20:11:35;2.50;;;2.50;;
22460;SDS011;11397;48.410;11.468;2023-08-17T20:16:37;2.30;;;2.30;;
22460;SDS011;11397;48.410;11.468;2023-08-17T20:21:40;2.30;;;2.30;;
22460;SDS011;11397;48.410;11.468;2023-08-17T20:26:43;2.25;;;2.25;;
22460;SDS011;11397;48.410;11.468;2023-08-17T20:31:46;2.55;;;2.55;;
22460;SDS011;11397;48.410;11.468;2023-08-17T20:36:49;2.40;;;2.40;;
22460;SDS011;11397;48.410;11.468;2023-08-17T20:41:53;2.25;;;2.25;;
22460;SDS011;11397;48.410;11.468;2023-08-17T20:46:55;2.53;;;2.53;;
22460;SDS011;11397;48.410;11.468;2023-08-17T20:52:00;2.55;;;2.55;;
22460;SDS011;11397;48.410;11.468;2023-08-17T20:57:05;2.53;;;2.53;;
22460;SDS011;11397;48.410;11.468;2023-08-17T21:02:08;2.30;;;2.30;;
22460;SDS011;11397;48.410;11.468;2023-08-17T21:07:10;2.30;;;2.30;;
22460;SDS011;11397;48.410;11.468;2023-08-17T21:12:13;2.33;;;2.33;;
22460;SDS011;11397;48.410;11.468;2023-08-17T21:17:16;2.50;;;2.50;;
22460;SDS011;11397;48.410;11.468;2023-08-17T21:22:19;2.40;;;2.40;;
22460;SDS011;11397;48.410;11.468;2023-08-17T21:27:22;2.40;;;2.40;;
22460;SDS011;11397;48.410;11.468;2023-08-17T21:32:25;2.40;;;2.40;;
22460;SDS011;11397;48.410;11.468;2023-08-17T21:37:27;2.35;;;2.35;;
22460;SDS011;11397;48.410;11.468;2023-08-17T21:42:32;2.47;;;2.47;;
22460;SDS011;11397;48.410;11.468;2023-08-17T21:47:34;2.38;;;2.38;;
22460;SDS011;11397;48.410;11.468;2023-08-17T21:52:36;2.50;;;2.50;;
22460;SDS011;11397;48.410;11.468;2023-08-17T21:57:40;2.38;;;2.38;;
22460;SDS011;11397;48.410;11.468;2023-08-17T22:02:42;2.50;;;2.50;;
22460;SDS011;11397;48.410;11.468;2023-08-17T22:07:44;2.55;;;2.55;;
22460;SDS011;11397;48.410;11.468;2023-08-17T22:12:47;2.60;;;2.60;;
22460;SDS011;11397;48.410;11.468;2023-08-17T22:17:50;2.42;;;2.42;;
22460;SDS011;11397;48.410;11.468;2023-08-17T22:22:51;2.30;;;2.30;;
22460;SDS011;11397;48.410;11.468;2023-08-17T22:27:55;2.40;;;2.40;;
22460;SDS011;11397;48.410;11.468;2023-08-17T22:32:57;2.50;;;2.50;;
22460;SDS011;11397;48.410;11.468;2023-08-17T22:37:59;2.60;;;2.60;;
22460;SDS011;11397;48.410;11.468;2023-08-17T22:43:02;2.05;;;2.05;;
22460;SDS011;11397;48.410;11.468;2023-08-17T22:48:04;2.65;;;2.65;;
22460;SDS011;11397;48.410;11.468;2023-08-17T22:53:05;2.55;;;2.55;;
22460;SDS011;11397;48.410;11.468;2023-08-17T22:58:08;2.55;;;2.55;;
22460;SDS011;11397;48.410;11.468;2023-08-17T23:03:10;2.70;;;2.70;;
22460;SDS011;11397;48.410;11.468;2023-08-17T23:08:12;2.50;;;2.50;;
22460;SDS011;11397;48.410;11.468;2023-08-17T23:13:15;2.35;;;2.35;;
22460;SDS011;11397;48.410;11.468;2023-08-17T23:18:17;2.40;;;2.40;;
22460;SDS011;11397;48.410;11.468;2023-08-17T23:23:19;2.60;;;2.60;;
22460;SDS011;11397;48.410;11.468;2023-08-17T23:28:22;2.47;;;2.47;;
22460;SDS011;11397;48.410;11.468;2023-08-17T23:33:24;2.33;;;2.33;;
22460;SDS011;11397;48.410;11.468;2023-08-17T23:38:26;2.22;;;2.22;;
22460;SDS011;11397;48.410;11.468;2023-08-17T23:43:29;2.70;;;2.70;;
22460;SDS011;11397;48.410;11.468;2023-08-17T23:48:31;2.53;;;2.53;;
22460;SDS011;11397;48.410;11.468;2023-08-17T23:53:32;2.50;;;2.50;;
22460;SDS011;11397;48.410;11.468;2023-08-17T23:58:36;2.70;;;2.70;;
